Alpine, AL

6:28 PM CST on November 23, 2014 (GMT -0600)
Sycamore,Alabama | Change Station
CLOSE
Current Station
Personal Weather Station
Location: Sycamore, AL
Elevation: 552 ft
Nearby Weather Stations

Elev 552 ft 33.26 °N, 86.21 °W | Updated 4 seconds ago

Mostly Cloudy
Mostly Cloudy
62.6 °F
Feels Like 62.6 °F
N
10.7
Wind Variable Wind from South
Gusts 15.2 mph

Today
High -- | Low -- °F
--% Chance of Precip.
Yesterday
High -- | Low -- °F
Precip. -- in
6:23 AM 4:38 PM
Waxing Crescent, 3% visible
Pressure 29.63 in
Visibility 10.0 miles
Clouds Few 2700 ft
Scattered Clouds 4300 ft
Dew Point 56 °F
Humidity 80%
Rainfall 0.50 in
Snow Depth Not available.
UV 0 out of 12
Pollen .30 out of 12
Air Quality Not available.
Flu Activity Not available.
METAR KANB 232353Z AUTO 22012KT 10SM FEW027 SCT043 17/13 A2964 RMK AO2 SLP034 60046 T01720133 10183 20144 53006 $

More Conditions Fewer Conditions

Pressure 29.63 in
Visibility 10.0 miles
Clouds Few 2700 ft
Scattered Clouds 4300 ft
Dew Point 56 °F
Humidity 80%
Rainfall 0.50 in
Snow Depth Not available.
UV 0 out of 12
Pollen .30 out of 12
Air Quality Not available.
Flu Activity Not available.
METAR KANB 232353Z AUTO 22012KT 10SM FEW027 SCT043 17/13 A2964 RMK AO2 SLP034 60046 T01720133 10183 20144 53006 $

More Conditions Fewer Conditions

10-Day Weather Forecast

Almanac

Astronomy

Nov. 23, 2014 Rise Set
Actual Time
Civil Twilight
Nautical Twilight
Astronomical Twilight
Moon
Length of Visible Light
Length of Day
Tomorrow will be .
, % of the Moon is Illuminated

Today's Extremes

State Highs State Lows

Community

WunderPhotos

Upload Photos

1,773,219 photos uploaded!

WunderBlogs® & News

Nearby

Air Quality

  Air Quality AQ Index Pollutant
Not available.

Snow Depth

Station Depth Elevation

Earthquake Activity

City Distance Mag. Time & Date
Minimum magnitude displayed is 2.5.

Coastal Water Temperatures

Place Temperature

Nearby Weather Stations